sensor_id;sensor_type;location;lat;lon;timestamp;P1;durP1;ratioP1;P2;durP2;ratioP2
37221;SDS011;23119;51.842;-2.230;2023-09-18T00:00:28;35.45;;;16.50;;
37221;SDS011;23119;51.842;-2.230;2023-09-18T00:02:55;35.55;;;17.63;;
37221;SDS011;23119;51.842;-2.230;2023-09-18T00:05:21;35.28;;;17.92;;
37221;SDS011;23119;51.842;-2.230;2023-09-18T00:07:47;32.13;;;18.25;;
37221;SDS011;23119;51.842;-2.230;2023-09-18T00:10:13;32.28;;;16.92;;
37221;SDS011;23119;51.842;-2.230;2023-09-18T00:12:39;32.97;;;17.33;;
37221;SDS011;23119;51.842;-2.230;2023-09-18T00:15:06;34.53;;;17.98;;
37221;SDS011;23119;51.842;-2.230;2023-09-18T00:17:35;34.45;;;17.58;;
37221;SDS011;23119;51.842;-2.230;2023-09-18T00:20:01;35.42;;;16.98;;
37221;SDS011;23119;51.842;-2.230;2023-09-18T00:22:31;31.60;;;17.77;;
37221;SDS011;23119;51.842;-2.230;2023-09-18T00:24:58;30.42;;;17.08;;
37221;SDS011;23119;51.842;-2.230;2023-09-18T00:27:24;30.40;;;15.65;;
37221;SDS011;23119;51.842;-2.230;2023-09-18T00:29:49;30.67;;;16.13;;
37221;SDS011;23119;51.842;-2.230;2023-09-18T00:32:15;25.77;;;14.43;;
37221;SDS011;23119;51.842;-2.230;2023-09-18T00:34:41;26.98;;;15.68;;
37221;SDS011;23119;51.842;-2.230;2023-09-18T00:37:06;28.92;;;15.52;;
37221;SDS011;23119;51.842;-2.230;2023-09-18T00:39:32;30.10;;;15.35;;
37221;SDS011;23119;51.842;-2.230;2023-09-18T00:42:00;32.10;;;16.48;;
37221;SDS011;23119;51.842;-2.230;2023-09-18T00:44:28;32.35;;;16.73;;
37221;SDS011;23119;51.842;-2.230;2023-09-18T00:46:53;29.23;;;16.55;;
37221;SDS011;23119;51.842;-2.230;2023-09-18T00:49:22;31.40;;;16.13;;
37221;SDS011;23119;51.842;-2.230;2023-09-18T00:51:49;31.90;;;16.38;;
37221;SDS011;23119;51.842;-2.230;2023-09-18T00:54:19;27.45;;;15.60;;
37221;SDS011;23119;51.842;-2.230;2023-09-18T00:56:50;30.13;;;15.70;;
37221;SDS011;23119;51.842;-2.230;2023-09-18T00:59:19;30.67;;;16.15;;
37221;SDS011;23119;51.842;-2.230;2023-09-18T01:01:48;31.88;;;15.15;;
37221;SDS011;23119;51.842;-2.230;2023-09-18T01:04:17;34.90;;;17.60;;
37221;SDS011;23119;51.842;-2.230;2023-09-18T01:06:46;30.67;;;16.38;;
37221;SDS011;23119;51.842;-2.230;2023-09-18T01:09:19;36.42;;;17.40;;
37221;SDS011;23119;51.842;-2.230;2023-09-18T01:16:56;32.97;;;17.85;;
37221;SDS011;23119;51.842;-2.230;2023-09-18T01:22:16;34.63;;;18.45;;
37221;SDS011;23119;51.842;-2.230;2023-09-18T01:24:43;37.30;;;18.45;;
37221;SDS011;23119;51.842;-2.230;2023-09-18T01:27:12;38.88;;;17.52;;
37221;SDS011;23119;51.842;-2.230;2023-09-18T01:29:39;35.60;;;17.08;;
37221;SDS011;23119;51.842;-2.230;2023-09-18T01:32:05;30.70;;;16.25;;
37221;SDS011;23119;51.842;-2.230;2023-09-18T01:34:33;32.45;;;17.88;;
37221;SDS011;23119;51.842;-2.230;2023-09-18T01:37:01;33.08;;;16.95;;
37221;SDS011;23119;51.842;-2.230;2023-09-18T01:39:33;36.85;;;18.85;;
37221;SDS011;23119;51.842;-2.230;2023-09-18T01:42:01;38.20;;;17.92;;
37221;SDS011;23119;51.842;-2.230;2023-09-18T01:44:31;28.63;;;16.40;;
37221;SDS011;23119;51.842;-2.230;2023-09-18T01:47:03;31.20;;;16.20;;
37221;SDS011;23119;51.842;-2.230;2023-09-18T01:49:37;36.63;;;17.92;;
37221;SDS011;23119;51.842;-2.230;2023-09-18T01:52:08;33.05;;;16.90;;
37221;SDS011;23119;51.842;-2.230;2023-09-18T01:54:36;33.92;;;17.10;;
37221;SDS011;23119;51.842;-2.230;2023-09-18T01:57:03;32.90;;;17.52;;
37221;SDS011;23119;51.842;-2.230;2023-09-18T01:59:34;27.88;;;16.05;;
37221;SDS011;23119;51.842;-2.230;2023-09-18T02:02:00;36.63;;;17.30;;
37221;SDS011;23119;51.842;-2.230;2023-09-18T02:04:28;33.08;;;16.85;;
37221;SDS011;23119;51.842;-2.230;2023-09-18T02:06:55;34.75;;;16.95;;
37221;SDS011;23119;51.842;-2.230;2023-09-18T02:09:22;31.80;;;16.60;;
37221;SDS011;23119;51.842;-2.230;2023-09-18T02:11:50;10.60;;;5.47;;
37221;SDS011;23119;51.842;-2.230;2023-09-18T02:14:16;5.40;;;1.85;;
37221;SDS011;23119;51.842;-2.230;2023-09-18T02:16:42;2.42;;;0.75;;
37221;SDS011;23119;51.842;-2.230;2023-09-18T02:19:09;3.53;;;0.70;;
37221;SDS011;23119;51.842;-2.230;2023-09-18T02:21:36;0.50;;;0.40;;
37221;SDS011;23119;51.842;-2.230;2023-09-18T02:24:02;3.50;;;0.40;;
37221;SDS011;23119;51.842;-2.230;2023-09-18T02:26:28;1.30;;;0.40;;
37221;SDS011;23119;51.842;-2.230;2023-09-18T02:29:07;1.00;;;0.40;;
37221;SDS011;23119;51.842;-2.230;2023-09-18T02:31:39;1.50;;;0.38;;
37221;SDS011;23119;51.842;-2.230;2023-09-18T02:34:05;1.75;;;0.30;;
37221;SDS011;23119;51.842;-2.230;2023-09-18T02:36:32;1.17;;;0.30;;
37221;SDS011;23119;51.842;-2.230;2023-09-18T02:38:58;0.90;;;0.28;;
37221;SDS011;23119;51.842;-2.230;2023-09-18T02:41:24;2.72;;;0.50;;
37221;SDS011;23119;51.842;-2.230;2023-09-18T02:43:49;0.57;;;0.30;;
37221;SDS011;23119;51.842;-2.230;2023-09-18T02:46:15;1.02;;;0.40;;
37221;SDS011;23119;51.842;-2.230;2023-09-18T02:48:41;1.30;;;0.50;;
37221;SDS011;23119;51.842;-2.230;2023-09-18T02:51:09;5.40;;;0.80;;
37221;SDS011;23119;51.842;-2.230;2023-09-18T02:53:35;2.28;;;0.60;;
37221;SDS011;23119;51.842;-2.230;2023-09-18T02:56:03;2.90;;;1.10;;
37221;SDS011;23119;51.842;-2.230;2023-09-18T02:58:31;3.25;;;1.15;;
37221;SDS011;23119;51.842;-2.230;2023-09-18T03:01:02;7.00;;;2.00;;
37221;SDS011;23119;51.842;-2.230;2023-09-18T03:03:32;6.07;;;2.72;;
37221;SDS011;23119;51.842;-2.230;2023-09-18T03:06:02;4.90;;;3.40;;
37221;SDS011;23119;51.842;-2.230;2023-09-18T03:08:31;7.13;;;4.40;;
37221;SDS011;23119;51.842;-2.230;2023-09-18T03:10:57;10.30;;;5.70;;
37221;SDS011;23119;51.842;-2.230;2023-09-18T03:13:23;11.85;;;5.75;;
37221;SDS011;23119;51.842;-2.230;2023-09-18T03:15:53;15.25;;;7.60;;
37221;SDS011;23119;51.842;-2.230;2023-09-18T03:18:24;18.73;;;8.43;;
37221;SDS011;23119;51.842;-2.230;2023-09-18T03:20:50;22.27;;;11.18;;
37221;SDS011;23119;51.842;-2.230;2023-09-18T03:23:18;19.70;;;11.63;;
37221;SDS011;23119;51.842;-2.230;2023-09-18T03:25:44;30.08;;;13.25;;
37221;SDS011;23119;51.842;-2.230;2023-09-18T03:28:09;22.02;;;14.25;;
37221;SDS011;23119;51.842;-2.230;2023-09-18T03:30:35;22.30;;;13.27;;
37221;SDS011;23119;51.842;-2.230;2023-09-18T03:33:01;22.88;;;14.52;;
37221;SDS011;23119;51.842;-2.230;2023-09-18T03:35:28;31.63;;;14.63;;
37221;SDS011;23119;51.842;-2.230;2023-09-18T03:37:55;23.85;;;14.52;;
37221;SDS011;23119;51.842;-2.230;2023-09-18T03:40:24;24.48;;;15.18;;
37221;SDS011;23119;51.842;-2.230;2023-09-18T03:42:51;31.52;;;16.00;;
37221;SDS011;23119;51.842;-2.230;2023-09-18T03:45:17;27.27;;;15.35;;
37221;SDS011;23119;51.842;-2.230;2023-09-18T03:47:45;27.70;;;14.85;;
37221;SDS011;23119;51.842;-2.230;2023-09-18T03:50:15;28.38;;;14.93;;
37221;SDS011;23119;51.842;-2.230;2023-09-18T03:52:40;24.58;;;14.50;;
37221;SDS011;23119;51.842;-2.230;2023-09-18T03:55:06;23.42;;;14.20;;
37221;SDS011;23119;51.842;-2.230;2023-09-18T03:57:33;28.30;;;14.88;;
37221;SDS011;23119;51.842;-2.230;2023-09-18T04:00:06;22.15;;;13.77;;
37221;SDS011;23119;51.842;-2.230;2023-09-18T04:02:36;20.25;;;13.13;;
37221;SDS011;23119;51.842;-2.230;2023-09-18T04:05:02;21.67;;;12.68;;
37221;SDS011;23119;51.842;-2.230;2023-09-18T04:07:28;23.95;;;13.10;;
37221;SDS011;23119;51.842;-2.230;2023-09-18T04:09:54;23.33;;;13.32;;
37221;SDS011;23119;51.842;-2.230;2023-09-18T04:12:22;30.80;;;13.85;;
37221;SDS011;23119;51.842;-2.230;2023-09-18T04:14:47;27.38;;;15.52;;
37221;SDS011;23119;51.842;-2.230;2023-09-18T04:17:13;21.88;;;12.95;;
37221;SDS011;23119;51.842;-2.230;2023-09-18T04:19:46;25.88;;;14.23;;
37221;SDS011;23119;51.842;-2.230;2023-09-18T04:22:12;20.83;;;13.10;;
37221;SDS011;23119;51.842;-2.230;2023-09-18T04:24:40;20.83;;;11.38;;
37221;SDS011;23119;51.842;-2.230;2023-09-18T04:27:06;16.92;;;9.95;;
37221;SDS011;23119;51.842;-2.230;2023-09-18T04:29:32;25.98;;;12.88;;
37221;SDS011;23119;51.842;-2.230;2023-09-18T04:31:58;18.00;;;11.10;;
37221;SDS011;23119;51.842;-2.230;2023-09-18T04:34:23;16.13;;;10.77;;
37221;SDS011;23119;51.842;-2.230;2023-09-18T04:36:51;18.77;;;9.25;;
37221;SDS011;23119;51.842;-2.230;2023-09-18T04:39:17;16.23;;;8.30;;
37221;SDS011;23119;51.842;-2.230;2023-09-18T04:41:43;16.95;;;7.35;;
37221;SDS011;23119;51.842;-2.230;2023-09-18T04:44:11;14.45;;;7.85;;
37221;SDS011;23119;51.842;-2.230;2023-09-18T04:46:39;10.18;;;6.60;;
37221;SDS011;23119;51.842;-2.230;2023-09-18T04:49:07;9.55;;;5.32;;
37221;SDS011;23119;51.842;-2.230;2023-09-18T04:51:35;9.23;;;6.15;;
37221;SDS011;23119;51.842;-2.230;2023-09-18T04:54:01;6.55;;;5.10;;
37221;SDS011;23119;51.842;-2.230;2023-09-18T04:56:27;15.23;;;5.00;;
37221;SDS011;23119;51.842;-2.230;2023-09-18T04:58:52;7.82;;;3.83;;
37221;SDS011;23119;51.842;-2.230;2023-09-18T05:01:18;7.72;;;5.25;;
37221;SDS011;23119;51.842;-2.230;2023-09-18T05:03:50;8.52;;;4.03;;
37221;SDS011;23119;51.842;-2.230;2023-09-18T05:06:16;8.63;;;4.07;;
37221;SDS011;23119;51.842;-2.230;2023-09-18T05:08:43;11.77;;;4.20;;
37221;SDS011;23119;51.842;-2.230;2023-09-18T05:11:09;7.55;;;3.40;;
37221;SDS011;23119;51.842;-2.230;2023-09-18T05:13:35;6.43;;;3.15;;
37221;SDS011;23119;51.842;-2.230;2023-09-18T05:16:00;7.45;;;2.95;;
37221;SDS011;23119;51.842;-2.230;2023-09-18T05:18:28;9.30;;;2.92;;
37221;SDS011;23119;51.842;-2.230;2023-09-18T05:20:54;6.88;;;2.78;;
37221;SDS011;23119;51.842;-2.230;2023-09-18T05:23:20;6.63;;;2.40;;
37221;SDS011;23119;51.842;-2.230;2023-09-18T05:25:48;7.90;;;2.35;;
37221;SDS011;23119;51.842;-2.230;2023-09-18T05:28:18;5.45;;;2.15;;
37221;SDS011;23119;51.842;-2.230;2023-09-18T05:30:43;6.60;;;2.25;;
37221;SDS011;23119;51.842;-2.230;2023-09-18T05:33:09;6.00;;;2.85;;
37221;SDS011;23119;51.842;-2.230;2023-09-18T05:35:36;6.22;;;2.00;;
37221;SDS011;23119;51.842;-2.230;2023-09-18T05:40:41;2.40;;;1.77;;
37221;SDS011;23119;51.842;-2.230;2023-09-18T05:43:08;5.57;;;1.85;;
37221;SDS011;23119;51.842;-2.230;2023-09-18T05:45:37;2.80;;;1.40;;
37221;SDS011;23119;51.842;-2.230;2023-09-18T05:48:03;5.90;;;1.65;;
37221;SDS011;23119;51.842;-2.230;2023-09-18T05:50:29;3.45;;;1.48;;
37221;SDS011;23119;51.842;-2.230;2023-09-18T05:52:56;4.88;;;1.60;;
37221;SDS011;23119;51.842;-2.230;2023-09-18T05:55:32;5.22;;;1.73;;
37221;SDS011;23119;51.842;-2.230;2023-09-18T05:57:59;3.63;;;1.40;;
37221;SDS011;23119;51.842;-2.230;2023-09-18T06:00:25;3.33;;;1.25;;
37221;SDS011;23119;51.842;-2.230;2023-09-18T06:02:51;4.85;;;1.35;;
37221;SDS011;23119;51.842;-2.230;2023-09-18T06:05:17;4.47;;;1.10;;
37221;SDS011;23119;51.842;-2.230;2023-09-18T06:07:46;3.58;;;0.80;;
37221;SDS011;23119;51.842;-2.230;2023-09-18T06:10:16;3.50;;;1.00;;
37221;SDS011;23119;51.842;-2.230;2023-09-18T06:12:43;3.70;;;1.02;;
37221;SDS011;23119;51.842;-2.230;2023-09-18T06:15:11;3.00;;;0.85;;
37221;SDS011;23119;51.842;-2.230;2023-09-18T06:17:41;1.80;;;0.80;;
37221;SDS011;23119;51.842;-2.230;2023-09-18T06:20:10;4.32;;;0.80;;
37221;SDS011;23119;51.842;-2.230;2023-09-18T06:22:41;2.97;;;0.82;;
37221;SDS011;23119;51.842;-2.230;2023-09-18T06:25:07;6.05;;;0.90;;
37221;SDS011;23119;51.842;-2.230;2023-09-18T06:27:35;5.55;;;0.70;;
37221;SDS011;23119;51.842;-2.230;2023-09-18T06:30:02;2.92;;;0.90;;
37221;SDS011;23119;51.842;-2.230;2023-09-18T06:32:28;2.70;;;0.60;;
37221;SDS011;23119;51.842;-2.230;2023-09-18T06:34:54;3.17;;;1.05;;
37221;SDS011;23119;51.842;-2.230;2023-09-18T06:37:23;4.45;;;0.70;;
37221;SDS011;23119;51.842;-2.230;2023-09-18T06:39:49;3.90;;;0.70;;
37221;SDS011;23119;51.842;-2.230;2023-09-18T06:42:35;2.70;;;0.88;;
37221;SDS011;23119;51.842;-2.230;2023-09-18T06:45:03;3.72;;;0.82;;
37221;SDS011;23119;51.842;-2.230;2023-09-18T06:47:31;1.98;;;0.75;;
37221;SDS011;23119;51.842;-2.230;2023-09-18T06:50:00;2.25;;;0.70;;
37221;SDS011;23119;51.842;-2.230;2023-09-18T06:52:26;6.18;;;0.70;;
37221;SDS011;23119;51.842;-2.230;2023-09-18T06:54:53;2.13;;;0.40;;
37221;SDS011;23119;51.842;-2.230;2023-09-18T06:57:19;4.28;;;0.75;;
37221;SDS011;23119;51.842;-2.230;2023-09-18T06:59:49;4.78;;;0.70;;
37221;SDS011;23119;51.842;-2.230;2023-09-18T07:02:16;3.70;;;0.60;;
37221;SDS011;23119;51.842;-2.230;2023-09-18T07:04:42;5.68;;;0.60;;
37221;SDS011;23119;51.842;-2.230;2023-09-18T07:07:13;2.65;;;0.43;;
37221;SDS011;23119;51.842;-2.230;2023-09-18T07:09:43;3.03;;;0.60;;
37221;SDS011;23119;51.842;-2.230;2023-09-18T07:12:08;6.22;;;0.60;;
37221;SDS011;23119;51.842;-2.230;2023-09-18T07:14:35;1.80;;;0.55;;
37221;SDS011;23119;51.842;-2.230;2023-09-18T07:17:01;2.13;;;0.52;;
37221;SDS011;23119;51.842;-2.230;2023-09-18T07:19:27;2.42;;;0.60;;
37221;SDS011;23119;51.842;-2.230;2023-09-18T07:21:53;1.85;;;0.50;;
37221;SDS011;23119;51.842;-2.230;2023-09-18T07:24:18;4.68;;;0.50;;
37221;SDS011;23119;51.842;-2.230;2023-09-18T07:26:46;3.03;;;0.65;;
37221;SDS011;23119;51.842;-2.230;2023-09-18T07:29:13;2.80;;;0.40;;
37221;SDS011;23119;51.842;-2.230;2023-09-18T07:31:40;2.00;;;0.40;;
37221;SDS011;23119;51.842;-2.230;2023-09-18T07:34:07;1.77;;;0.52;;
37221;SDS011;23119;51.842;-2.230;2023-09-18T07:36:33;1.63;;;0.50;;
37221;SDS011;23119;51.842;-2.230;2023-09-18T07:38:59;2.45;;;0.50;;
37221;SDS011;23119;51.842;-2.230;2023-09-18T07:41:24;2.10;;;0.60;;
37221;SDS011;23119;51.842;-2.230;2023-09-18T07:43:50;2.97;;;0.50;;
37221;SDS011;23119;51.842;-2.230;2023-09-18T07:46:16;2.03;;;0.73;;
37221;SDS011;23119;51.842;-2.230;2023-09-18T07:48:44;2.70;;;0.50;;
37221;SDS011;23119;51.842;-2.230;2023-09-18T07:51:13;2.20;;;0.40;;
37221;SDS011;23119;51.842;-2.230;2023-09-18T07:53:41;2.42;;;0.43;;
37221;SDS011;23119;51.842;-2.230;2023-09-18T07:56:07;3.40;;;0.40;;
37221;SDS011;23119;51.842;-2.230;2023-09-18T07:58:37;1.73;;;0.45;;
37221;SDS011;23119;51.842;-2.230;2023-09-18T08:01:04;2.17;;;0.60;;
37221;SDS011;23119;51.842;-2.230;2023-09-18T08:03:30;3.88;;;0.50;;
37221;SDS011;23119;51.842;-2.230;2023-09-18T08:05:59;2.75;;;0.45;;
37221;SDS011;23119;51.842;-2.230;2023-09-18T08:08:24;2.05;;;0.47;;
37221;SDS011;23119;51.842;-2.230;2023-09-18T08:10:51;1.52;;;0.40;;
37221;SDS011;23119;51.842;-2.230;2023-09-18T08:13:19;1.73;;;0.50;;
37221;SDS011;23119;51.842;-2.230;2023-09-18T08:15:45;1.85;;;0.50;;
37221;SDS011;23119;51.842;-2.230;2023-09-18T08:18:11;3.53;;;0.80;;
37221;SDS011;23119;51.842;-2.230;2023-09-18T08:20:40;2.90;;;0.60;;
37221;SDS011;23119;51.842;-2.230;2023-09-18T08:23:07;1.92;;;0.50;;
37221;SDS011;23119;51.842;-2.230;2023-09-18T08:25:34;2.70;;;0.60;;
37221;SDS011;23119;51.842;-2.230;2023-09-18T08:28:00;2.05;;;0.57;;
37221;SDS011;23119;51.842;-2.230;2023-09-18T08:30:26;6.13;;;0.70;;
37221;SDS011;23119;51.842;-2.230;2023-09-18T08:32:51;4.68;;;0.50;;
37221;SDS011;23119;51.842;-2.230;2023-09-18T08:35:17;3.97;;;0.70;;
37221;SDS011;23119;51.842;-2.230;2023-09-18T08:37:43;5.18;;;0.70;;
37221;SDS011;23119;51.842;-2.230;2023-09-18T08:40:12;5.38;;;0.80;;
37221;SDS011;23119;51.842;-2.230;2023-09-18T08:42:39;3.40;;;0.70;;
37221;SDS011;23119;51.842;-2.230;2023-09-18T08:45:10;2.58;;;0.60;;
37221;SDS011;23119;51.842;-2.230;2023-09-18T08:47:41;3.85;;;0.73;;
37221;SDS011;23119;51.842;-2.230;2023-09-18T08:50:10;6.05;;;0.93;;
37221;SDS011;23119;51.842;-2.230;2023-09-18T08:52:37;3.33;;;0.80;;
37221;SDS011;23119;51.842;-2.230;2023-09-18T08:55:06;5.57;;;0.70;;
37221;SDS011;23119;51.842;-2.230;2023-09-18T08:57:38;3.72;;;0.93;;
37221;SDS011;23119;51.842;-2.230;2023-09-18T09:00:06;2.75;;;0.65;;
37221;SDS011;23119;51.842;-2.230;2023-09-18T09:02:45;2.70;;;1.17;;
37221;SDS011;23119;51.842;-2.230;2023-09-18T09:07:39;4.68;;;0.63;;
37221;SDS011;23119;51.842;-2.230;2023-09-18T09:10:05;3.63;;;0.70;;
37221;SDS011;23119;51.842;-2.230;2023-09-18T09:12:48;3.90;;;0.65;;
37221;SDS011;23119;51.842;-2.230;2023-09-18T09:15:15;5.82;;;0.80;;
37221;SDS011;23119;51.842;-2.230;2023-09-18T09:17:42;4.80;;;0.60;;
37221;SDS011;23119;51.842;-2.230;2023-09-18T09:20:09;4.13;;;0.93;;
37221;SDS011;23119;51.842;-2.230;2023-09-18T09:22:40;2.97;;;1.03;;
37221;SDS011;23119;51.842;-2.230;2023-09-18T09:27:51;18.98;;;2.20;;
37221;SDS011;23119;51.842;-2.230;2023-09-18T09:30:22;32.72;;;4.00;;
37221;SDS011;23119;51.842;-2.230;2023-09-18T09:32:50;8.82;;;0.95;;
37221;SDS011;23119;51.842;-2.230;2023-09-18T09:35:21;24.35;;;2.88;;
37221;SDS011;23119;51.842;-2.230;2023-09-18T09:37:57;5.40;;;1.25;;
37221;SDS011;23119;51.842;-2.230;2023-09-18T09:40:26;10.90;;;1.10;;
37221;SDS011;23119;51.842;-2.230;2023-09-18T09:42:57;21.25;;;2.58;;
37221;SDS011;23119;51.842;-2.230;2023-09-18T09:45:30;11.52;;;1.60;;
37221;SDS011;23119;51.842;-2.230;2023-09-18T09:48:04;22.73;;;2.10;;
37221;SDS011;23119;51.842;-2.230;2023-09-18T09:50:31;6.88;;;1.10;;
37221;SDS011;23119;51.842;-2.230;2023-09-18T09:52:57;5.55;;;1.40;;
37221;SDS011;23119;51.842;-2.230;2023-09-18T09:55:28;2.65;;;0.90;;
37221;SDS011;23119;51.842;-2.230;2023-09-18T09:58:02;5.40;;;1.15;;
37221;SDS011;23119;51.842;-2.230;2023-09-18T10:03:11;3.90;;;0.60;;
37221;SDS011;23119;51.842;-2.230;2023-09-18T10:05:42;3.20;;;0.85;;
37221;SDS011;23119;51.842;-2.230;2023-09-18T10:10:48;2.58;;;0.70;;
37221;SDS011;23119;51.842;-2.230;2023-09-18T10:13:16;2.20;;;0.60;;
37221;SDS011;23119;51.842;-2.230;2023-09-18T10:16:05;6.25;;;0.65;;
37221;SDS011;23119;51.842;-2.230;2023-09-18T10:26:40;2.13;;;0.60;;
37221;SDS011;23119;51.842;-2.230;2023-09-18T10:29:15;2.33;;;0.40;;
37221;SDS011;23119;51.842;-2.230;2023-09-18T10:31:44;3.78;;;0.70;;
37221;SDS011;23119;51.842;-2.230;2023-09-18T10:34:12;2.53;;;0.68;;
37221;SDS011;23119;51.842;-2.230;2023-09-18T10:36:45;4.75;;;0.70;;
37221;SDS011;23119;51.842;-2.230;2023-09-18T10:39:14;2.80;;;0.70;;
37221;SDS011;23119;51.842;-2.230;2023-09-18T10:41:47;3.90;;;0.70;;
37221;SDS011;23119;51.842;-2.230;2023-09-18T10:44:16;3.30;;;0.63;;
37221;SDS011;23119;51.842;-2.230;2023-09-18T10:46:47;2.72;;;0.80;;
37221;SDS011;23119;51.842;-2.230;2023-09-18T10:49:19;2.78;;;0.70;;
37221;SDS011;23119;51.842;-2.230;2023-09-18T10:51:46;3.15;;;0.77;;
37221;SDS011;23119;51.842;-2.230;2023-09-18T10:54:16;6.22;;;1.63;;
37221;SDS011;23119;51.842;-2.230;2023-09-18T10:56:45;3.80;;;0.90;;
37221;SDS011;23119;51.842;-2.230;2023-09-18T10:59:13;4.18;;;1.00;;
37221;SDS011;23119;51.842;-2.230;2023-09-18T11:01:42;4.38;;;0.90;;
37221;SDS011;23119;51.842;-2.230;2023-09-18T11:04:09;3.95;;;0.95;;
37221;SDS011;23119;51.842;-2.230;2023-09-18T11:09:23;5.55;;;0.60;;
37221;SDS011;23119;51.842;-2.230;2023-09-18T11:14:41;3.35;;;0.68;;
37221;SDS011;23119;51.842;-2.230;2023-09-18T11:20:16;2.42;;;0.50;;
37221;SDS011;23119;51.842;-2.230;2023-09-18T11:25:39;1.75;;;0.30;;
37221;SDS011;23119;51.842;-2.230;2023-09-18T11:28:23;3.17;;;0.90;;
37221;SDS011;23119;51.842;-2.230;2023-09-18T11:30:51;1.52;;;0.20;;
37221;SDS011;23119;51.842;-2.230;2023-09-18T11:33:38;2.17;;;0.05;;
37221;SDS011;23119;51.842;-2.230;2023-09-18T11:36:09;0.52;;;0.10;;
37221;SDS011;23119;51.842;-2.230;2023-09-18T11:38:56;1.08;;;0.28;;
37221;SDS011;23119;51.842;-2.230;2023-09-18T11:41:25;0.08;;;0.00;;
37221;SDS011;23119;51.842;-2.230;2023-09-18T11:44:38;1.65;;;0.70;;
37221;SDS011;23119;51.842;-2.230;2023-09-18T11:46:49;1.13;;;0.10;;
37221;SDS011;23119;51.842;-2.230;2023-09-18T11:49:23;1.30;;;0.10;;
37221;SDS011;23119;51.842;-2.230;2023-09-18T11:51:53;1.30;;;0.10;;
37221;SDS011;23119;51.842;-2.230;2023-09-18T11:54:23;1.17;;;0.13;;
37221;SDS011;23119;51.842;-2.230;2023-09-18T11:56:49;0.50;;;0.10;;
37221;SDS011;23119;51.842;-2.230;2023-09-18T11:59:17;0.50;;;0.10;;
37221;SDS011;23119;51.842;-2.230;2023-09-18T12:01:52;2.10;;;0.30;;
37221;SDS011;23119;51.842;-2.230;2023-09-18T12:04:18;0.82;;;0.20;;
37221;SDS011;23119;51.842;-2.230;2023-09-18T12:06:52;0.50;;;0.20;;
37221;SDS011;23119;51.842;-2.230;2023-09-18T12:09:18;0.75;;;0.20;;
37221;SDS011;23119;51.842;-2.230;2023-09-18T12:11:44;2.40;;;0.17;;
37221;SDS011;23119;51.842;-2.230;2023-09-18T12:14:10;2.95;;;0.10;;
37221;SDS011;23119;51.842;-2.230;2023-09-18T12:16:38;0.95;;;0.10;;
37221;SDS011;23119;51.842;-2.230;2023-09-18T12:19:07;0.50;;;0.00;;
37221;SDS011;23119;51.842;-2.230;2023-09-18T12:21:33;0.80;;;0.55;;
37221;SDS011;23119;51.842;-2.230;2023-09-18T12:24:05;0.85;;;0.10;;
37221;SDS011;23119;51.842;-2.230;2023-09-18T12:26:31;0.47;;;0.10;;
37221;SDS011;23119;51.842;-2.230;2023-09-18T12:28:58;1.48;;;0.20;;
37221;SDS011;23119;51.842;-2.230;2023-09-18T12:31:25;1.25;;;0.30;;
37221;SDS011;23119;51.842;-2.230;2023-09-18T12:33:51;1.33;;;0.20;;
37221;SDS011;23119;51.842;-2.230;2023-09-18T12:36:19;1.40;;;0.10;;
37221;SDS011;23119;51.842;-2.230;2023-09-18T12:38:55;1.40;;;0.20;;
37221;SDS011;23119;51.842;-2.230;2023-09-18T12:41:23;3.60;;;0.38;;
37221;SDS011;23119;51.842;-2.230;2023-09-18T12:43:53;1.80;;;0.20;;
37221;SDS011;23119;51.842;-2.230;2023-09-18T12:46:19;4.43;;;0.28;;
37221;SDS011;23119;51.842;-2.230;2023-09-18T12:48:47;2.33;;;0.30;;
37221;SDS011;23119;51.842;-2.230;2023-09-18T12:51:13;1.73;;;0.20;;
37221;SDS011;23119;51.842;-2.230;2023-09-18T12:53:41;1.15;;;0.20;;
37221;SDS011;23119;51.842;-2.230;2023-09-18T12:56:10;2.75;;;0.28;;
37221;SDS011;23119;51.842;-2.230;2023-09-18T12:58:41;4.30;;;0.28;;
37221;SDS011;23119;51.842;-2.230;2023-09-18T13:01:12;2.97;;;0.20;;
37221;SDS011;23119;51.842;-2.230;2023-09-18T13:03:42;1.10;;;0.30;;
37221;SDS011;23119;51.842;-2.230;2023-09-18T13:06:18;1.52;;;0.30;;
37221;SDS011;23119;51.842;-2.230;2023-09-18T13:08:45;1.33;;;0.20;;
37221;SDS011;23119;51.842;-2.230;2023-09-18T13:11:11;1.27;;;0.20;;
37221;SDS011;23119;51.842;-2.230;2023-09-18T13:13:41;2.67;;;0.30;;
37221;SDS011;23119;51.842;-2.230;2023-09-18T13:16:08;1.08;;;0.20;;
37221;SDS011;23119;51.842;-2.230;2023-09-18T13:18:35;1.15;;;0.30;;
37221;SDS011;23119;51.842;-2.230;2023-09-18T13:21:10;1.42;;;0.28;;
37221;SDS011;23119;51.842;-2.230;2023-09-18T13:23:39;0.77;;;0.20;;
37221;SDS011;23119;51.842;-2.230;2023-09-18T13:26:05;1.33;;;0.20;;
37221;SDS011;23119;51.842;-2.230;2023-09-18T13:28:37;2.38;;;0.30;;
37221;SDS011;23119;51.842;-2.230;2023-09-18T13:31:05;2.40;;;0.30;;
37221;SDS011;23119;51.842;-2.230;2023-09-18T13:33:31;5.20;;;0.40;;
37221;SDS011;23119;51.842;-2.230;2023-09-18T13:35:58;1.60;;;0.20;;
37221;SDS011;23119;51.842;-2.230;2023-09-18T13:38:24;2.25;;;0.30;;
37221;SDS011;23119;51.842;-2.230;2023-09-18T13:40:51;1.45;;;0.20;;
37221;SDS011;23119;51.842;-2.230;2023-09-18T13:43:19;0.30;;;0.03;;
37221;SDS011;23119;51.842;-2.230;2023-09-18T13:45:49;0.30;;;0.00;;
37221;SDS011;23119;51.842;-2.230;2023-09-18T13:48:18;1.13;;;0.00;;
37221;SDS011;23119;51.842;-2.230;2023-09-18T13:50:44;1.83;;;0.10;;
37221;SDS011;23119;51.842;-2.230;2023-09-18T13:53:11;2.60;;;0.10;;
37221;SDS011;23119;51.842;-2.230;2023-09-18T13:55:40;1.48;;;0.10;;
37221;SDS011;23119;51.842;-2.230;2023-09-18T13:58:06;0.30;;;0.00;;
37221;SDS011;23119;51.842;-2.230;2023-09-18T14:00:32;0.57;;;0.10;;
37221;SDS011;23119;51.842;-2.230;2023-09-18T14:03:05;1.02;;;0.00;;
37221;SDS011;23119;51.842;-2.230;2023-09-18T14:05:31;0.80;;;0.00;;
37221;SDS011;23119;51.842;-2.230;2023-09-18T14:07:58;0.65;;;0.10;;
37221;SDS011;23119;51.842;-2.230;2023-09-18T14:10:25;1.27;;;0.10;;
37221;SDS011;23119;51.842;-2.230;2023-09-18T14:12:52;0.30;;;0.05;;
37221;SDS011;23119;51.842;-2.230;2023-09-18T14:15:17;0.30;;;0.00;;
37221;SDS011;23119;51.842;-2.230;2023-09-18T14:17:43;0.15;;;0.00;;
37221;SDS011;23119;51.842;-2.230;2023-09-18T14:20:09;0.28;;;0.00;;
37221;SDS011;23119;51.842;-2.230;2023-09-18T14:22:35;2.33;;;0.20;;
37221;SDS011;23119;51.842;-2.230;2023-09-18T14:25:01;0.82;;;0.10;;
37221;SDS011;23119;51.842;-2.230;2023-09-18T14:27:31;4.63;;;0.60;;
37221;SDS011;23119;51.842;-2.230;2023-09-18T14:29:57;0.88;;;0.10;;
37221;SDS011;23119;51.842;-2.230;2023-09-18T14:32:29;0.90;;;0.10;;
37221;SDS011;23119;51.842;-2.230;2023-09-18T14:34:57;1.00;;;0.17;;
37221;SDS011;23119;51.842;-2.230;2023-09-18T14:37:26;1.55;;;0.20;;
37221;SDS011;23119;51.842;-2.230;2023-09-18T14:39:51;3.97;;;0.20;;
37221;SDS011;23119;51.842;-2.230;2023-09-18T14:42:17;2.42;;;0.30;;
37221;SDS011;23119;51.842;-2.230;2023-09-18T14:44:43;2.10;;;0.20;;
37221;SDS011;23119;51.842;-2.230;2023-09-18T14:47:11;3.63;;;0.45;;
37221;SDS011;23119;51.842;-2.230;2023-09-18T14:49:37;4.60;;;0.35;;
37221;SDS011;23119;51.842;-2.230;2023-09-18T14:52:05;3.15;;;0.30;;
37221;SDS011;23119;51.842;-2.230;2023-09-18T14:54:34;4.82;;;0.30;;
37221;SDS011;23119;51.842;-2.230;2023-09-18T14:56:59;3.55;;;0.20;;
37221;SDS011;23119;51.842;-2.230;2023-09-18T14:59:26;1.98;;;0.30;;
37221;SDS011;23119;51.842;-2.230;2023-09-18T15:01:52;3.05;;;0.40;;
37221;SDS011;23119;51.842;-2.230;2023-09-18T15:04:17;1.60;;;0.30;;
37221;SDS011;23119;51.842;-2.230;2023-09-18T15:06:46;7.10;;;0.40;;
37221;SDS011;23119;51.842;-2.230;2023-09-18T15:09:13;2.40;;;0.30;;
37221;SDS011;23119;51.842;-2.230;2023-09-18T15:11:39;2.00;;;0.30;;
37221;SDS011;23119;51.842;-2.230;2023-09-18T15:14:07;4.35;;;0.38;;